sensor_id;sensor_type;location;lat;lon;timestamp;P1;durP1;ratioP1;P2;durP2;ratioP2
39776;SDS011;25453;48.162;14.510;2022-10-31T00:02:20;2.25;;;1.20;;
39776;SDS011;25453;48.162;14.510;2022-10-31T00:04:54;2.75;;;1.25;;
39776;SDS011;25453;48.162;14.510;2022-10-31T00:07:21;1.75;;;1.20;;
39776;SDS011;25453;48.162;14.510;2022-10-31T00:09:55;2.22;;;1.17;;
39776;SDS011;25453;48.162;14.510;2022-10-31T00:12:22;1.70;;;1.05;;
39776;SDS011;25453;48.162;14.510;2022-10-31T00:14:56;2.25;;;1.00;;
39776;SDS011;25453;48.162;14.510;2022-10-31T00:17:23;1.48;;;0.80;;
39776;SDS011;25453;48.162;14.510;2022-10-31T00:19:58;2.40;;;1.20;;
39776;SDS011;25453;48.162;14.510;2022-10-31T00:22:25;3.03;;;1.30;;
39776;SDS011;25453;48.162;14.510;2022-10-31T00:24:59;1.90;;;1.10;;
39776;SDS011;25453;48.162;14.510;2022-10-31T00:27:26;1.38;;;1.10;;
39776;SDS011;25453;48.162;14.510;2022-10-31T00:30:00;2.08;;;1.30;;
39776;SDS011;25453;48.162;14.510;2022-10-31T00:32:28;2.67;;;1.40;;
39776;SDS011;25453;48.162;14.510;2022-10-31T00:35:03;1.88;;;1.10;;
39776;SDS011;25453;48.162;14.510;2022-10-31T00:37:30;1.65;;;1.10;;
39776;SDS011;25453;48.162;14.510;2022-10-31T00:40:04;2.10;;;0.95;;
39776;SDS011;25453;48.162;14.510;2022-10-31T00:42:39;2.35;;;1.05;;
39776;SDS011;25453;48.162;14.510;2022-10-31T00:45:14;2.88;;;1.77;;
39776;SDS011;25453;48.162;14.510;2022-10-31T00:47:48;2.22;;;0.95;;
39776;SDS011;25453;48.162;14.510;2022-10-31T00:50:15;2.10;;;1.10;;
39776;SDS011;25453;48.162;14.510;2022-10-31T00:52:42;1.77;;;0.82;;
39776;SDS011;25453;48.162;14.510;2022-10-31T00:55:16;1.50;;;0.90;;
39776;SDS011;25453;48.162;14.510;2022-10-31T00:57:56;1.95;;;0.82;;
39776;SDS011;25453;48.162;14.510;2022-10-31T01:00:30;1.17;;;0.80;;
39776;SDS011;25453;48.162;14.510;2022-10-31T01:02:58;1.58;;;0.95;;
39776;SDS011;25453;48.162;14.510;2022-10-31T01:05:32;2.30;;;1.00;;
39776;SDS011;25453;48.162;14.510;2022-10-31T01:08:00;1.40;;;0.93;;
39776;SDS011;25453;48.162;14.510;2022-10-31T01:10:34;1.63;;;1.00;;
39776;SDS011;25453;48.162;14.510;2022-10-31T01:13:01;2.10;;;1.13;;
39776;SDS011;25453;48.162;14.510;2022-10-31T01:15:35;2.22;;;1.00;;
39776;SDS011;25453;48.162;14.510;2022-10-31T01:18:02;2.22;;;1.40;;
39776;SDS011;25453;48.162;14.510;2022-10-31T01:20:36;2.05;;;1.50;;
39776;SDS011;25453;48.162;14.510;2022-10-31T01:23:03;1.17;;;0.77;;
39776;SDS011;25453;48.162;14.510;2022-10-31T01:25:37;2.20;;;1.25;;
39776;SDS011;25453;48.162;14.510;2022-10-31T01:28:04;2.03;;;1.10;;
39776;SDS011;25453;48.162;14.510;2022-10-31T01:30:38;2.60;;;1.13;;
39776;SDS011;25453;48.162;14.510;2022-10-31T01:33:05;2.08;;;1.02;;
39776;SDS011;25453;48.162;14.510;2022-10-31T01:35:39;1.40;;;0.80;;
39776;SDS011;25453;48.162;14.510;2022-10-31T01:38:06;1.70;;;1.10;;
39776;SDS011;25453;48.162;14.510;2022-10-31T01:40:40;1.33;;;0.80;;
39776;SDS011;25453;48.162;14.510;2022-10-31T01:43:10;1.63;;;0.90;;
39776;SDS011;25453;48.162;14.510;2022-10-31T01:45:52;1.77;;;1.00;;
39776;SDS011;25453;48.162;14.510;2022-10-31T01:48:21;1.48;;;0.70;;
39776;SDS011;25453;48.162;14.510;2022-10-31T01:51:00;0.98;;;0.80;;
39776;SDS011;25453;48.162;14.510;2022-10-31T01:53:36;1.67;;;1.00;;
39776;SDS011;25453;48.162;14.510;2022-10-31T01:56:03;2.45;;;1.20;;
39776;SDS011;25453;48.162;14.510;2022-10-31T01:58:38;0.95;;;0.75;;
39776;SDS011;25453;48.162;14.510;2022-10-31T02:01:14;2.22;;;1.08;;
39776;SDS011;25453;48.162;14.510;2022-10-31T02:03:43;1.35;;;0.82;;
39776;SDS011;25453;48.162;14.510;2022-10-31T02:06:22;2.75;;;1.08;;
39776;SDS011;25453;48.162;14.510;2022-10-31T02:09:07;1.77;;;0.93;;
39776;SDS011;25453;48.162;14.510;2022-10-31T02:11:41;1.23;;;0.90;;
39776;SDS011;25453;48.162;14.510;2022-10-31T02:14:10;2.33;;;1.38;;
39776;SDS011;25453;48.162;14.510;2022-10-31T02:16:45;1.83;;;1.20;;
39776;SDS011;25453;48.162;14.510;2022-10-31T02:19:13;1.60;;;0.90;;
39776;SDS011;25453;48.162;14.510;2022-10-31T02:22:23;1.40;;;0.90;;
39776;SDS011;25453;48.162;14.510;2022-10-31T02:39:25;1.67;;;0.80;;
39776;SDS011;25453;48.162;14.510;2022-10-31T02:42:02;1.30;;;0.80;;
39776;SDS011;25453;48.162;14.510;2022-10-31T02:47:17;0.88;;;0.68;;
39776;SDS011;25453;48.162;14.510;2022-10-31T02:52:36;1.42;;;0.77;;
39776;SDS011;25453;48.162;14.510;2022-10-31T02:58:05;2.20;;;1.05;;
39776;SDS011;25453;48.162;14.510;2022-10-31T03:09:32;1.63;;;0.90;;
39776;SDS011;25453;48.162;14.510;2022-10-31T03:12:24;1.20;;;0.68;;
39776;SDS011;25453;48.162;14.510;2022-10-31T03:15:00;1.63;;;1.00;;
39776;SDS011;25453;48.162;14.510;2022-10-31T03:17:36;1.25;;;0.80;;
39776;SDS011;25453;48.162;14.510;2022-10-31T03:20:07;1.98;;;0.70;;
39776;SDS011;25453;48.162;14.510;2022-10-31T03:22:43;1.15;;;0.70;;
39776;SDS011;25453;48.162;14.510;2022-10-31T03:25:18;1.17;;;0.70;;
39776;SDS011;25453;48.162;14.510;2022-10-31T03:27:45;1.90;;;0.88;;
39776;SDS011;25453;48.162;14.510;2022-10-31T03:30:21;1.58;;;0.75;;
39776;SDS011;25453;48.162;14.510;2022-10-31T03:32:49;1.73;;;0.90;;
39776;SDS011;25453;48.162;14.510;2022-10-31T03:35:25;1.33;;;0.80;;
39776;SDS011;25453;48.162;14.510;2022-10-31T03:37:54;1.42;;;0.80;;
39776;SDS011;25453;48.162;14.510;2022-10-31T03:40:32;1.85;;;0.90;;
39776;SDS011;25453;48.162;14.510;2022-10-31T03:43:04;2.10;;;0.90;;
39776;SDS011;25453;48.162;14.510;2022-10-31T03:45:43;1.20;;;0.68;;
39776;SDS011;25453;48.162;14.510;2022-10-31T03:48:13;1.52;;;0.90;;
39776;SDS011;25453;48.162;14.510;2022-10-31T03:53:52;2.53;;;0.90;;
39776;SDS011;25453;48.162;14.510;2022-10-31T03:56:57;1.40;;;0.80;;
39776;SDS011;25453;48.162;14.510;2022-10-31T04:00:11;1.70;;;0.80;;
39776;SDS011;25453;48.162;14.510;2022-10-31T04:02:41;1.45;;;0.93;;
39776;SDS011;25453;48.162;14.510;2022-10-31T04:08:04;1.30;;;0.80;;
39776;SDS011;25453;48.162;14.510;2022-10-31T04:10:42;2.65;;;1.05;;
39776;SDS011;25453;48.162;14.510;2022-10-31T04:13:25;2.58;;;1.00;;
39776;SDS011;25453;48.162;14.510;2022-10-31T04:16:02;1.75;;;0.80;;
39776;SDS011;25453;48.162;14.510;2022-10-31T04:18:29;1.40;;;0.85;;
39776;SDS011;25453;48.162;14.510;2022-10-31T04:21:04;2.30;;;0.98;;
39776;SDS011;25453;48.162;14.510;2022-10-31T04:23:39;1.20;;;0.85;;
39776;SDS011;25453;48.162;14.510;2022-10-31T04:26:07;1.17;;;0.85;;
39776;SDS011;25453;48.162;14.510;2022-10-31T04:28:44;2.47;;;0.85;;
39776;SDS011;25453;48.162;14.510;2022-10-31T04:31:11;1.50;;;0.65;;
39776;SDS011;25453;48.162;14.510;2022-10-31T04:33:45;0.80;;;0.75;;
39776;SDS011;25453;48.162;14.510;2022-10-31T04:36:12;1.98;;;0.90;;
39776;SDS011;25453;48.162;14.510;2022-10-31T04:38:46;2.17;;;1.05;;
39776;SDS011;25453;48.162;14.510;2022-10-31T04:41:13;2.67;;;1.27;;
39776;SDS011;25453;48.162;14.510;2022-10-31T04:43:47;1.25;;;0.80;;
39776;SDS011;25453;48.162;14.510;2022-10-31T04:46:21;2.45;;;1.00;;
39776;SDS011;25453;48.162;14.510;2022-10-31T04:48:48;1.83;;;1.15;;
39776;SDS011;25453;48.162;14.510;2022-10-31T04:51:22;1.05;;;0.70;;
39776;SDS011;25453;48.162;14.510;2022-10-31T04:53:49;1.50;;;0.75;;
39776;SDS011;25453;48.162;14.510;2022-10-31T04:56:23;1.73;;;0.85;;
39776;SDS011;25453;48.162;14.510;2022-10-31T04:59:03;1.77;;;1.20;;
39776;SDS011;25453;48.162;14.510;2022-10-31T05:01:37;1.15;;;0.80;;
39776;SDS011;25453;48.162;14.510;2022-10-31T05:04:07;1.50;;;0.80;;
39776;SDS011;25453;48.162;14.510;2022-10-31T05:06:41;1.60;;;0.77;;
39776;SDS011;25453;48.162;14.510;2022-10-31T05:09:15;1.15;;;0.70;;
39776;SDS011;25453;48.162;14.510;2022-10-31T05:11:42;1.70;;;0.93;;
39776;SDS011;25453;48.162;14.510;2022-10-31T05:14:09;1.75;;;0.88;;
39776;SDS011;25453;48.162;14.510;2022-10-31T05:16:43;1.98;;;1.00;;
39776;SDS011;25453;48.162;14.510;2022-10-31T05:19:10;1.38;;;0.93;;
39776;SDS011;25453;48.162;14.510;2022-10-31T05:21:44;1.92;;;0.82;;
39776;SDS011;25453;48.162;14.510;2022-10-31T05:24:11;0.80;;;0.60;;
39776;SDS011;25453;48.162;14.510;2022-10-31T05:26:45;1.95;;;0.80;;
39776;SDS011;25453;48.162;14.510;2022-10-31T05:29:12;1.65;;;0.98;;
39776;SDS011;25453;48.162;14.510;2022-10-31T05:31:46;0.80;;;0.63;;
39776;SDS011;25453;48.162;14.510;2022-10-31T05:34:20;2.85;;;0.98;;
39776;SDS011;25453;48.162;14.510;2022-10-31T05:36:47;1.52;;;0.90;;
39776;SDS011;25453;48.162;14.510;2022-10-31T05:39:21;1.88;;;0.80;;
39776;SDS011;25453;48.162;14.510;2022-10-31T05:41:55;1.40;;;0.90;;
39776;SDS011;25453;48.162;14.510;2022-10-31T05:44:29;1.77;;;1.08;;
39776;SDS011;25453;48.162;14.510;2022-10-31T05:46:56;1.95;;;0.82;;
39776;SDS011;25453;48.162;14.510;2022-10-31T05:49:30;1.20;;;0.80;;
39776;SDS011;25453;48.162;14.510;2022-10-31T05:52:04;1.65;;;0.80;;
39776;SDS011;25453;48.162;14.510;2022-10-31T05:54:38;1.38;;;0.98;;
39776;SDS011;25453;48.162;14.510;2022-10-31T05:57:18;1.75;;;1.00;;
39776;SDS011;25453;48.162;14.510;2022-10-31T05:59:52;1.50;;;0.90;;
39776;SDS011;25453;48.162;14.510;2022-10-31T06:02:20;3.25;;;1.20;;
39776;SDS011;25453;48.162;14.510;2022-10-31T06:04:54;1.40;;;0.85;;
39776;SDS011;25453;48.162;14.510;2022-10-31T06:07:21;2.47;;;1.00;;
39776;SDS011;25453;48.162;14.510;2022-10-31T06:09:55;1.80;;;0.82;;
39776;SDS011;25453;48.162;14.510;2022-10-31T06:12:29;3.03;;;1.23;;
39776;SDS011;25453;48.162;14.510;2022-10-31T06:14:56;2.25;;;1.02;;
39776;SDS011;25453;48.162;14.510;2022-10-31T06:17:30;2.35;;;1.23;;
39776;SDS011;25453;48.162;14.510;2022-10-31T06:20:04;1.35;;;0.80;;
39776;SDS011;25453;48.162;14.510;2022-10-31T06:22:32;1.50;;;1.00;;
39776;SDS011;25453;48.162;14.510;2022-10-31T06:25:07;2.50;;;1.13;;
39776;SDS011;25453;48.162;14.510;2022-10-31T06:27:41;1.30;;;0.73;;
39776;SDS011;25453;48.162;14.510;2022-10-31T06:30:15;1.75;;;0.80;;
39776;SDS011;25453;48.162;14.510;2022-10-31T06:32:49;1.50;;;1.00;;
39776;SDS011;25453;48.162;14.510;2022-10-31T06:35:23;1.48;;;0.90;;
39776;SDS011;25453;48.162;14.510;2022-10-31T06:37:57;2.38;;;1.08;;
39776;SDS011;25453;48.162;14.510;2022-10-31T06:40:25;1.85;;;0.90;;
39776;SDS011;25453;48.162;14.510;2022-10-31T06:42:56;1.92;;;0.85;;
39776;SDS011;25453;48.162;14.510;2022-10-31T06:45:33;1.10;;;0.60;;
39776;SDS011;25453;48.162;14.510;2022-10-31T06:48:07;0.95;;;0.70;;
39776;SDS011;25453;48.162;14.510;2022-10-31T06:50:43;2.20;;;0.90;;
39776;SDS011;25453;48.162;14.510;2022-10-31T06:53:10;0.60;;;0.50;;
39776;SDS011;25453;48.162;14.510;2022-10-31T06:55:44;0.98;;;0.65;;
39776;SDS011;25453;48.162;14.510;2022-10-31T06:58:31;1.10;;;0.80;;
39776;SDS011;25453;48.162;14.510;2022-10-31T07:01:05;1.00;;;0.70;;
39776;SDS011;25453;48.162;14.510;2022-10-31T07:03:39;1.47;;;0.80;;
39776;SDS011;25453;48.162;14.510;2022-10-31T07:06:13;1.40;;;0.68;;
39776;SDS011;25453;48.162;14.510;2022-10-31T07:08:40;1.23;;;0.60;;
39776;SDS011;25453;48.162;14.510;2022-10-31T07:11:14;0.75;;;0.50;;
39776;SDS011;25453;48.162;14.510;2022-10-31T07:13:48;1.88;;;0.70;;
39776;SDS011;25453;48.162;14.510;2022-10-31T07:16:15;2.15;;;0.88;;
39776;SDS011;25453;48.162;14.510;2022-10-31T07:18:49;1.52;;;0.70;;
39776;SDS011;25453;48.162;14.510;2022-10-31T07:21:23;1.60;;;1.02;;
39776;SDS011;25453;48.162;14.510;2022-10-31T07:24:00;1.77;;;0.80;;
39776;SDS011;25453;48.162;14.510;2022-10-31T07:26:27;1.38;;;0.77;;
39776;SDS011;25453;48.162;14.510;2022-10-31T07:29:01;1.20;;;0.82;;
39776;SDS011;25453;48.162;14.510;2022-10-31T07:31:35;2.10;;;0.80;;
39776;SDS011;25453;48.162;14.510;2022-10-31T07:34:09;1.45;;;0.85;;
39776;SDS011;25453;48.162;14.510;2022-10-31T07:36:43;1.42;;;0.80;;
39776;SDS011;25453;48.162;14.510;2022-10-31T07:39:10;1.02;;;0.47;;
39776;SDS011;25453;48.162;14.510;2022-10-31T07:41:44;1.48;;;1.00;;
39776;SDS011;25453;48.162;14.510;2022-10-31T07:44:11;2.30;;;0.90;;
39776;SDS011;25453;48.162;14.510;2022-10-31T07:46:45;1.50;;;0.70;;
39776;SDS011;25453;48.162;14.510;2022-10-31T07:49:12;2.35;;;1.02;;
39776;SDS011;25453;48.162;14.510;2022-10-31T07:51:46;1.63;;;0.95;;
39776;SDS011;25453;48.162;14.510;2022-10-31T07:54:20;1.55;;;0.70;;
39776;SDS011;25453;48.162;14.510;2022-10-31T07:56:47;1.85;;;0.90;;
39776;SDS011;25453;48.162;14.510;2022-10-31T07:59:28;1.10;;;0.65;;
39776;SDS011;25453;48.162;14.510;2022-10-31T08:02:02;2.75;;;1.10;;
39776;SDS011;25453;48.162;14.510;2022-10-31T08:04:29;1.65;;;0.88;;
39776;SDS011;25453;48.162;14.510;2022-10-31T08:07:03;2.35;;;1.02;;
39776;SDS011;25453;48.162;14.510;2022-10-31T08:09:37;1.63;;;0.90;;
39776;SDS011;25453;48.162;14.510;2022-10-31T08:12:11;1.73;;;0.90;;
39776;SDS011;25453;48.162;14.510;2022-10-31T08:14:45;1.77;;;0.80;;
39776;SDS011;25453;48.162;14.510;2022-10-31T08:17:19;2.38;;;1.30;;
39776;SDS011;25453;48.162;14.510;2022-10-31T08:19:53;2.00;;;1.00;;
39776;SDS011;25453;48.162;14.510;2022-10-31T08:22:20;3.45;;;1.27;;
39776;SDS011;25453;48.162;14.510;2022-10-31T08:24:47;3.00;;;1.25;;
39776;SDS011;25453;48.162;14.510;2022-10-31T08:27:21;1.80;;;1.00;;
39776;SDS011;25453;48.162;14.510;2022-10-31T08:29:48;2.60;;;1.08;;
39776;SDS011;25453;48.162;14.510;2022-10-31T08:32:15;3.03;;;1.40;;
39776;SDS011;25453;48.162;14.510;2022-10-31T08:34:49;1.30;;;1.02;;
39776;SDS011;25453;48.162;14.510;2022-10-31T08:37:16;1.98;;;1.17;;
39776;SDS011;25453;48.162;14.510;2022-10-31T08:39:53;2.85;;;1.25;;
39776;SDS011;25453;48.162;14.510;2022-10-31T08:42:20;2.55;;;1.27;;
39776;SDS011;25453;48.162;14.510;2022-10-31T08:44:54;3.42;;;1.50;;
39776;SDS011;25453;48.162;14.510;2022-10-31T08:47:21;1.98;;;1.35;;
39776;SDS011;25453;48.162;14.510;2022-10-31T08:49:55;2.70;;;1.15;;
39776;SDS011;25453;48.162;14.510;2022-10-31T08:52:23;2.30;;;1.30;;
39776;SDS011;25453;48.162;14.510;2022-10-31T08:55:11;4.03;;;1.50;;
39776;SDS011;25453;48.162;14.510;2022-10-31T08:57:55;4.25;;;1.45;;
39776;SDS011;25453;48.162;14.510;2022-10-31T09:00:26;2.65;;;1.25;;
39776;SDS011;25453;48.162;14.510;2022-10-31T09:03:01;2.40;;;1.30;;
39776;SDS011;25453;48.162;14.510;2022-10-31T09:05:30;4.28;;;1.60;;
39776;SDS011;25453;48.162;14.510;2022-10-31T09:08:04;2.40;;;1.50;;
39776;SDS011;25453;48.162;14.510;2022-10-31T09:10:38;3.97;;;2.03;;
39776;SDS011;25453;48.162;14.510;2022-10-31T09:13:14;4.32;;;1.75;;
39776;SDS011;25453;48.162;14.510;2022-10-31T09:15:44;4.00;;;1.50;;
39776;SDS011;25453;48.162;14.510;2022-10-31T09:18:20;3.58;;;1.60;;
39776;SDS011;25453;48.162;14.510;2022-10-31T09:20:56;2.53;;;1.55;;
39776;SDS011;25453;48.162;14.510;2022-10-31T09:23:24;3.33;;;1.48;;
39776;SDS011;25453;48.162;14.510;2022-10-31T09:25:59;2.17;;;1.40;;
39776;SDS011;25453;48.162;14.510;2022-10-31T09:28:27;3.55;;;1.50;;
39776;SDS011;25453;48.162;14.510;2022-10-31T09:30:54;4.25;;;1.65;;
39776;SDS011;25453;48.162;14.510;2022-10-31T09:33:28;3.65;;;1.80;;
39776;SDS011;25453;48.162;14.510;2022-10-31T09:35:55;2.67;;;1.35;;
39776;SDS011;25453;48.162;14.510;2022-10-31T09:38:32;2.92;;;1.55;;
39776;SDS011;25453;48.162;14.510;2022-10-31T09:52:03;3.17;;;2.00;;
39776;SDS011;25453;48.162;14.510;2022-10-31T09:55:04;4.82;;;2.00;;
39776;SDS011;25453;48.162;14.510;2022-10-31T09:57:47;3.33;;;1.60;;
39776;SDS011;25453;48.162;14.510;2022-10-31T10:00:28;4.00;;;1.98;;
39776;SDS011;25453;48.162;14.510;2022-10-31T10:03:06;2.78;;;1.50;;
39776;SDS011;25453;48.162;14.510;2022-10-31T10:08:26;2.97;;;1.77;;
39776;SDS011;25453;48.162;14.510;2022-10-31T10:17:22;5.95;;;2.17;;
39776;SDS011;25453;48.162;14.510;2022-10-31T10:22:50;4.72;;;2.20;;
39776;SDS011;25453;48.162;14.510;2022-10-31T10:25:38;2.95;;;1.65;;
39776;SDS011;25453;48.162;14.510;2022-10-31T10:30:47;4.85;;;2.35;;
39776;SDS011;25453;48.162;14.510;2022-10-31T10:33:39;3.33;;;1.67;;
39776;SDS011;25453;48.162;14.510;2022-10-31T10:36:33;3.40;;;1.80;;
39776;SDS011;25453;48.162;14.510;2022-10-31T10:39:16;4.05;;;1.90;;
39776;SDS011;25453;48.162;14.510;2022-10-31T10:41:49;4.35;;;2.05;;
39776;SDS011;25453;48.162;14.510;2022-10-31T10:44:45;2.80;;;1.63;;
39776;SDS011;25453;48.162;14.510;2022-10-31T10:47:38;4.22;;;1.98;;
39776;SDS011;25453;48.162;14.510;2022-10-31T10:50:19;2.53;;;1.60;;
39776;SDS011;25453;48.162;14.510;2022-10-31T10:55:56;5.00;;;2.25;;
39776;SDS011;25453;48.162;14.510;2022-10-31T10:58:50;4.05;;;2.08;;
39776;SDS011;25453;48.162;14.510;2022-10-31T11:01:19;3.65;;;2.08;;
39776;SDS011;25453;48.162;14.510;2022-10-31T11:03:52;3.83;;;2.15;;
39776;SDS011;25453;48.162;14.510;2022-10-31T11:06:19;4.70;;;2.42;;
39776;SDS011;25453;48.162;14.510;2022-10-31T11:08:59;4.13;;;1.80;;
39776;SDS011;25453;48.162;14.510;2022-10-31T11:11:38;3.22;;;2.08;;
39776;SDS011;25453;48.162;14.510;2022-10-31T11:14:12;3.30;;;1.75;;
39776;SDS011;25453;48.162;14.510;2022-10-31T11:16:42;3.25;;;1.95;;
39776;SDS011;25453;48.162;14.510;2022-10-31T11:19:22;6.82;;;3.40;;
39776;SDS011;25453;48.162;14.510;2022-10-31T11:22:04;6.75;;;3.42;;
39776;SDS011;25453;48.162;14.510;2022-10-31T11:24:48;5.30;;;3.10;;
39776;SDS011;25453;48.162;14.510;2022-10-31T11:27:16;7.50;;;3.70;;
39776;SDS011;25453;48.162;14.510;2022-10-31T11:30:03;6.97;;;3.65;;
39776;SDS011;25453;48.162;14.510;2022-10-31T11:32:31;7.18;;;4.20;;
39776;SDS011;25453;48.162;14.510;2022-10-31T11:35:08;6.47;;;3.72;;
39776;SDS011;25453;48.162;14.510;2022-10-31T11:37:42;7.97;;;4.00;;
39776;SDS011;25453;48.162;14.510;2022-10-31T11:40:19;6.80;;;3.50;;
39776;SDS011;25453;48.162;14.510;2022-10-31T11:42:51;5.22;;;3.25;;
39776;SDS011;25453;48.162;14.510;2022-10-31T11:45:28;6.75;;;3.35;;
39776;SDS011;25453;48.162;14.510;2022-10-31T11:47:59;6.43;;;3.22;;
39776;SDS011;25453;48.162;14.510;2022-10-31T11:50:39;5.45;;;3.13;;
39776;SDS011;25453;48.162;14.510;2022-10-31T11:53:16;5.30;;;2.75;;
39776;SDS011;25453;48.162;14.510;2022-10-31T11:56:10;4.03;;;2.72;;
39776;SDS011;25453;48.162;14.510;2022-10-31T11:58:54;4.82;;;2.83;;
39776;SDS011;25453;48.162;14.510;2022-10-31T12:01:31;5.28;;;2.72;;
39776;SDS011;25453;48.162;14.510;2022-10-31T12:06:41;5.75;;;3.15;;
39776;SDS011;25453;48.162;14.510;2022-10-31T12:17:39;5.93;;;2.97;;
39776;SDS011;25453;48.162;14.510;2022-10-31T12:26:11;5.97;;;2.73;;
39776;SDS011;25453;48.162;14.510;2022-10-31T12:32:15;3.83;;;2.17;;
39776;SDS011;25453;48.162;14.510;2022-10-31T12:43:42;4.00;;;2.20;;
39776;SDS011;25453;48.162;14.510;2022-10-31T12:46:35;4.50;;;2.20;;
39776;SDS011;25453;48.162;14.510;2022-10-31T12:55:00;4.47;;;2.47;;
39776;SDS011;25453;48.162;14.510;2022-10-31T12:57:47;3.17;;;1.83;;
39776;SDS011;25453;48.162;14.510;2022-10-31T13:00:25;4.25;;;2.20;;
39776;SDS011;25453;48.162;14.510;2022-10-31T13:03:00;4.05;;;1.70;;
39776;SDS011;25453;48.162;14.510;2022-10-31T13:05:58;4.55;;;2.45;;
39776;SDS011;25453;48.162;14.510;2022-10-31T13:08:39;4.55;;;2.08;;
39776;SDS011;25453;48.162;14.510;2022-10-31T13:11:25;5.80;;;2.40;;
39776;SDS011;25453;48.162;14.510;2022-10-31T13:14:36;4.88;;;2.63;;
39776;SDS011;25453;48.162;14.510;2022-10-31T13:22:48;3.97;;;2.25;;
39776;SDS011;25453;48.162;14.510;2022-10-31T13:25:30;3.33;;;1.90;;
39776;SDS011;25453;48.162;14.510;2022-10-31T13:28:03;3.22;;;1.80;;
39776;SDS011;25453;48.162;14.510;2022-10-31T13:31:01;2.83;;;1.75;;
39776;SDS011;25453;48.162;14.510;2022-10-31T13:36:28;3.42;;;1.67;;
39776;SDS011;25453;48.162;14.510;2022-10-31T13:39:13;6.03;;;2.30;;
39776;SDS011;25453;48.162;14.510;2022-10-31T13:42:11;5.35;;;2.70;;
39776;SDS011;25453;48.162;14.510;2022-10-31T13:44:44;3.28;;;2.08;;
39776;SDS011;25453;48.162;14.510;2022-10-31T13:47:28;4.32;;;2.25;;
39776;SDS011;25453;48.162;14.510;2022-10-31T13:50:06;4.60;;;2.67;;
39776;SDS011;25453;48.162;14.510;2022-10-31T13:53:03;4.45;;;2.35;;
39776;SDS011;25453;48.162;14.510;2022-10-31T13:55:44;4.25;;;2.47;;
39776;SDS011;25453;48.162;14.510;2022-10-31T13:58:26;3.95;;;2.10;;
39776;SDS011;25453;48.162;14.510;2022-10-31T14:04:17;5.57;;;2.40;;
39776;SDS011;25453;48.162;14.510;2022-10-31T14:07:06;4.45;;;2.50;;
39776;SDS011;25453;48.162;14.510;2022-10-31T14:09:48;4.60;;;3.00;;
39776;SDS011;25453;48.162;14.510;2022-10-31T14:12:52;4.85;;;2.30;;
39776;SDS011;25453;48.162;14.510;2022-10-31T14:15:37;3.42;;;1.83;;
39776;SDS011;25453;48.162;14.510;2022-10-31T14:18:07;3.67;;;2.08;;
39776;SDS011;25453;48.162;14.510;2022-10-31T14:20:58;3.13;;;1.98;;
39776;SDS011;25453;48.162;14.510;2022-10-31T14:23:37;3.78;;;1.98;;
39776;SDS011;25453;48.162;14.510;2022-10-31T14:31:43;5.00;;;2.03;;
39776;SDS011;25453;48.162;14.510;2022-10-31T14:37:35;8.50;;;3.53;;
39776;SDS011;25453;48.162;14.510;2022-10-31T14:51:00;13.15;;;7.32;;
39776;SDS011;25453;48.162;14.510;2022-10-31T14:53:47;14.02;;;7.55;;
39776;SDS011;25453;48.162;14.510;2022-10-31T14:56:24;14.75;;;9.05;;
39776;SDS011;25453;48.162;14.510;2022-10-31T14:59:08;18.70;;;9.35;;
39776;SDS011;25453;48.162;14.510;2022-10-31T15:02:21;20.27;;;9.68;;
39776;SDS011;25453;48.162;14.510;2022-10-31T15:04:49;22.45;;;9.38;;
39776;SDS011;25453;48.162;14.510;2022-10-31T15:07:23;21.20;;;10.18;;
39776;SDS011;25453;48.162;14.510;2022-10-31T15:10:15;24.42;;;10.45;;
39776;SDS011;25453;48.162;14.510;2022-10-31T15:13:13;24.58;;;10.48;;
39776;SDS011;25453;48.162;14.510;2022-10-31T15:15:45;16.95;;;8.35;;
39776;SDS011;25453;48.162;14.510;2022-10-31T15:18:21;16.70;;;8.45;;
39776;SDS011;25453;48.162;14.510;2022-10-31T15:20:57;15.07;;;6.93;;
39776;SDS011;25453;48.162;14.510;2022-10-31T15:23:25;16.13;;;8.18;;
39776;SDS011;25453;48.162;14.510;2022-10-31T15:26:01;15.18;;;7.63;;
39776;SDS011;25453;48.162;14.510;2022-10-31T15:28:31;11.65;;;6.32;;
39776;SDS011;25453;48.162;14.510;2022-10-31T15:31:05;15.07;;;7.35;;
39776;SDS011;25453;48.162;14.510;2022-10-31T15:33:40;14.05;;;6.85;;
39776;SDS011;25453;48.162;14.510;2022-10-31T15:36:19;11.85;;;6.05;;
39776;SDS011;25453;48.162;14.510;2022-10-31T15:38:59;12.68;;;6.50;;
39776;SDS011;25453;48.162;14.510;2022-10-31T15:41:34;14.18;;;6.82;;
39776;SDS011;25453;48.162;14.510;2022-10-31T15:44:26;13.02;;;6.45;;
39776;SDS011;25453;48.162;14.510;2022-10-31T15:47:00;10.48;;;5.65;;
39776;SDS011;25453;48.162;14.510;2022-10-31T15:49:46;12.88;;;6.72;;
39776;SDS011;25453;48.162;14.510;2022-10-31T15:52:33;12.43;;;6.95;;
39776;SDS011;25453;48.162;14.510;2022-10-31T15:55:20;21.35;;;8.88;;
39776;SDS011;25453;48.162;14.510;2022-10-31T15:58:02;16.20;;;8.43;;
39776;SDS011;25453;48.162;14.510;2022-10-31T16:01:03;18.27;;;8.43;;
39776;SDS011;25453;48.162;14.510;2022-10-31T16:03:58;17.35;;;8.30;;
39776;SDS011;25453;48.162;14.510;2022-10-31T16:06:27;19.52;;;9.10;;
39776;SDS011;25453;48.162;14.510;2022-10-31T16:09:01;22.55;;;10.50;;
39776;SDS011;25453;48.162;14.510;2022-10-31T16:11:36;17.38;;;8.15;;
39776;SDS011;25453;48.162;14.510;2022-10-31T16:14:07;14.63;;;8.02;;
39776;SDS011;25453;48.162;14.510;2022-10-31T16:16:52;18.17;;;8.55;;
39776;SDS011;25453;48.162;14.510;2022-10-31T16:19:26;18.10;;;7.72;;
39776;SDS011;25453;48.162;14.510;2022-10-31T16:22:11;13.55;;;7.70;;
39776;SDS011;25453;48.162;14.510;2022-10-31T16:24:49;15.07;;;8.18;;
39776;SDS011;25453;48.162;14.510;2022-10-31T16:29:56;13.50;;;7.07;;
39776;SDS011;25453;48.162;14.510;2022-10-31T16:32:35;11.30;;;6.28;;
39776;SDS011;25453;48.162;14.510;2022-10-31T16:35:34;8.77;;;5.38;;
39776;SDS011;25453;48.162;14.510;2022-10-31T16:38:10;13.43;;;6.75;;
39776;SDS011;25453;48.162;14.510;2022-10-31T16:40:37;13.82;;;6.70;;
39776;SDS011;25453;48.162;14.510;2022-10-31T16:43:12;12.27;;;6.65;;
39776;SDS011;25453;48.162;14.510;2022-10-31T16:45:42;10.63;;;6.63;;
39776;SDS011;25453;48.162;14.510;2022-10-31T16:48:20;12.30;;;5.72;;
39776;SDS011;25453;48.162;14.510;2022-10-31T16:50:49;9.90;;;5.85;;
39776;SDS011;25453;48.162;14.510;2022-10-31T16:53:25;9.55;;;5.10;;
39776;SDS011;25453;48.162;14.510;2022-10-31T16:58:36;9.35;;;4.78;;
39776;SDS011;25453;48.162;14.510;2022-10-31T17:01:04;10.75;;;5.60;;
39776;SDS011;25453;48.162;14.510;2022-10-31T17:03:39;9.48;;;5.60;;
39776;SDS011;25453;48.162;14.510;2022-10-31T17:06:09;11.38;;;5.47;;
39776;SDS011;25453;48.162;14.510;2022-10-31T17:08:45;10.35;;;5.18;;
39776;SDS011;25453;48.162;14.510;2022-10-31T17:11:20;8.65;;;4.57;;
39776;SDS011;25453;48.162;14.510;2022-10-31T17:13:56;8.60;;;4.60;;
39776;SDS011;25453;48.162;14.510;2022-10-31T17:16:30;7.10;;;4.57;;
39776;SDS011;25453;48.162;14.510;2022-10-31T17:18:57;9.93;;;5.22;;
39776;SDS011;25453;48.162;14.510;2022-10-31T17:21:31;12.07;;;5.10;;
39776;SDS011;25453;48.162;14.510;2022-10-31T17:24:05;8.35;;;4.90;;
39776;SDS011;25453;48.162;14.510;2022-10-31T17:26:34;10.18;;;5.13;;
39776;SDS011;25453;48.162;14.510;2022-10-31T17:29:08;9.13;;;4.88;;
39776;SDS011;25453;48.162;14.510;2022-10-31T17:31:42;12.27;;;5.68;;
39776;SDS011;25453;48.162;14.510;2022-10-31T17:34:16;9.85;;;5.68;;
39776;SDS011;25453;48.162;14.510;2022-10-31T17:36:48;11.70;;;5.10;;
39776;SDS011;25453;48.162;14.510;2022-10-31T17:39:23;9.07;;;4.78;;
39776;SDS011;25453;48.162;14.510;2022-10-31T17:41:57;8.75;;;4.82;;